This is the latest recevied weather packets stored in our database for station/object EA4BCR. If no packets are shown the sender has not sent any weather packets the latest 10 day(s).
| Time | Temp. | Humidity | Pressure | Rain* | Wind** | Luminosity | Snow |
|---|---|---|---|---|---|---|---|
| 1787862615 | 21.67° C | 42% | 1015.1 hPa | - | - | - | - |
| 1787862015 | 21.67° C | 44% | 1014.7 hPa | - | - | - | - |
| 1787861415 | 22.22° C | 42% | 1014.4 hPa | - | - | - | - |
| 1787860815 | 22.22° C | 41% | 1014.2 hPa | - | - | - | - |
| 1787860215 | 22.22° C | 43% | 1013.9 hPa | - | - | - | - |
| 1787859616 | 22.22° C | 44% | 1014.2 hPa | - | - | - | - |
| 1787859015 | 22.78° C | 41% | 1013.8 hPa | - | - | - | - |
| 1787858415 | 21.67° C | 42% | 1014 hPa | - | - | - | - |
| 1787857815 | 22.22° C | 41% | 1013.5 hPa | - | - | - | - |
| 1787857215 | 22.22° C | 41% | 1013.4 hPa | - | - | - | - |
| 1787856615 | 22.78° C | 39% | 1013.1 hPa | - | - | - | - |
| 1787856015 | 22.22° C | 41% | 1013.3 hPa | - | - | - | - |
| 1787855415 | 22.22° C | 41% | 1013.1 hPa | - | - | - | - |
| 1787854815 | 22.78° C | 40% | 1012.8 hPa | - | - | - | - |
| 1787854215 | 22.78° C | 39% | 1012.7 hPa | - | - | - | - |
| 1787853615 | 22.22° C | 40% | 1013 hPa | - | - | - | - |
| 1787853015 | 22.78° C | 40% | 1012.9 hPa | - | - | - | - |
| 1787852415 | 22.78° C | 39% | 1013 hPa | - | - | - | - |
| 1787851815 | 23.33° C | 39% | 1012.9 hPa | - | - | - | - |
| 1787851215 | 23.33° C | 38% | 1012.7 hPa | - | - | - | - |
| 1787850614 | 22.78° C | 38% | 1012.7 hPa | - | - | - | - |
| 1787850015 | 22.78° C | 38% | 1012.7 hPa | - | - | - | - |
| 1787849415 | 22.78° C | 38% | 1012.6 hPa | - | - | - | - |
| 1787848815 | 23.33° C | 36% | 1012.4 hPa | - | - | - | - |
| 1787848215 | 22.78° C | 36% | 1012.6 hPa | - | - | - | - |
* Rain since midnight (hover to see other rain measurements)
** Current wind speed in m/s (hover to see current wind gust speed)